createdAt,value
2018-07-14T00:04:10.901Z,2.50
2018-07-14T00:14:15.616Z,2.33
2018-07-14T00:24:20.319Z,2.43
2018-07-14T00:34:25.063Z,2.20
2018-07-14T00:44:29.834Z,2.50
2018-07-14T00:54:34.814Z,2.43
2018-07-14T01:04:40.111Z,2.40
2018-07-14T01:14:45.090Z,2.23
2018-07-14T01:24:49.765Z,2.20
2018-07-14T01:34:54.475Z,2.30
2018-07-14T01:44:59.366Z,2.13
2018-07-14T01:55:04.148Z,2.27
2018-07-14T02:05:09.315Z,2.40
2018-07-14T02:15:13.998Z,2.33
2018-07-14T02:25:18.936Z,2.37
2018-07-14T02:35:23.836Z,2.17
2018-07-14T02:45:28.631Z,2.13
2018-07-14T02:55:33.021Z,2.30
2018-07-14T03:05:38.263Z,2.50
2018-07-14T03:15:42.955Z,2.20
2018-07-14T03:25:49.173Z,2.30
2018-07-14T03:35:54.361Z,2.10
2018-07-14T03:45:59.157Z,2.20
2018-07-14T03:56:03.471Z,2.33
2018-07-14T04:06:08.396Z,2.10
2018-07-14T04:16:13.073Z,2.27
2018-07-14T04:26:18.742Z,2.40
2018-07-14T04:36:23.459Z,3.20
2018-07-14T04:46:27.784Z,2.80
2018-07-14T04:56:32.512Z,3.10
2018-07-14T05:06:37.214Z,2.97
2018-07-14T05:16:42.162Z,2.93
2018-07-14T05:26:46.954Z,2.90
2018-07-14T05:36:51.239Z,2.80
2018-07-14T05:46:56.034Z,2.67
2018-07-14T05:57:03.208Z,2.70
2018-07-14T06:07:08.080Z,2.80
2018-07-14T06:17:12.966Z,2.80
2018-07-14T06:27:18.418Z,2.50
2018-07-14T06:37:23.651Z,2.80
2018-07-14T06:47:28.818Z,2.90
2018-07-14T06:57:34.375Z,2.90
2018-07-14T07:07:38.862Z,3.33
2018-07-14T07:17:44.736Z,2.70
2018-07-14T07:27:50.246Z,2.40
2018-07-14T07:37:55.045Z,2.37
2018-07-14T07:48:00.846Z,3.17
2018-07-14T07:58:06.243Z,3.20
2018-07-14T08:08:11.005Z,2.90
2018-07-14T08:18:16.656Z,3.23
2018-07-14T08:28:21.382Z,2.67
2018-07-14T08:38:26.390Z,2.70
2018-07-14T08:48:31.123Z,3.00
2018-07-14T08:58:36.653Z,2.70
2018-07-14T09:08:42.184Z,3.57
2018-07-14T09:18:48.171Z,3.07
2018-07-14T09:28:53.956Z,3.20
2018-07-14T09:39:01.069Z,3.00
2018-07-14T09:49:07.679Z,3.47
2018-07-14T09:59:14.101Z,4.13
2018-07-14T10:09:18.803Z,4.03
2018-07-14T10:19:24.507Z,4.00
2018-07-14T10:29:31.772Z,4.10
2018-07-14T10:39:36.931Z,3.80
2018-07-14T10:49:41.784Z,3.97
2018-07-14T10:59:46.536Z,4.20
2018-07-14T11:09:51.603Z,3.93
2018-07-14T11:19:56.257Z,3.40
2018-07-14T11:30:01.322Z,3.40
2018-07-14T11:40:06.955Z,4.00
2018-07-14T11:50:11.903Z,3.53
2018-07-14T12:00:16.556Z,3.33
2018-07-14T12:10:21.092Z,3.80
2018-07-14T12:20:25.853Z,3.20
2018-07-14T12:30:30.855Z,3.30
2018-07-14T12:40:35.720Z,3.10
2018-07-14T12:50:41.298Z,3.20
2018-07-14T13:00:46.516Z,3.30
2018-07-14T13:10:50.905Z,3.10
2018-07-14T13:20:55.670Z,2.90
2018-07-14T13:31:00.296Z,3.30
2018-07-14T13:41:04.848Z,3.17
2018-07-14T13:51:09.693Z,2.83
2018-07-14T14:01:14.395Z,3.20
2018-07-14T14:11:19.313Z,2.83
2018-07-14T14:21:24.010Z,2.90
2018-07-14T14:31:28.932Z,2.90
2018-07-14T14:41:33.599Z,2.80
2018-07-14T14:51:38.366Z,3.00
2018-07-14T15:01:43.050Z,2.90
2018-07-14T15:11:48.601Z,2.93
2018-07-14T15:21:53.243Z,2.80
2018-07-14T15:31:58.423Z,2.70
2018-07-14T15:42:03.017Z,2.73
2018-07-14T15:52:08.344Z,3.00
2018-07-14T16:02:13.184Z,2.70
2018-07-14T16:12:17.960Z,2.70
2018-07-14T16:22:22.633Z,2.60
2018-07-14T16:32:27.339Z,2.67
2018-07-14T16:42:32.000Z,2.70
2018-07-14T16:52:36.806Z,2.57
2018-07-14T17:02:42.652Z,2.60
2018-07-14T17:12:47.332Z,2.80
2018-07-14T17:22:51.931Z,2.50
2018-07-14T17:32:56.696Z,2.53
2018-07-14T17:43:01.371Z,2.40
2018-07-14T17:53:06.052Z,2.50
2018-07-14T18:03:10.763Z,2.23
2018-07-14T18:13:15.504Z,2.50
2018-07-14T18:23:20.183Z,2.40
2018-07-14T18:33:24.983Z,2.37
2018-07-14T18:43:29.306Z,2.50
2018-07-14T18:53:34.093Z,2.20
2018-07-14T19:03:39.302Z,2.40
2018-07-14T19:13:44.082Z,2.33
2018-07-14T19:23:49.176Z,2.30
2018-07-14T19:33:53.848Z,2.43
2018-07-14T19:43:58.424Z,2.67
2018-07-14T19:54:03.115Z,2.77
2018-07-14T20:04:07.764Z,2.60
2018-07-14T20:14:12.402Z,2.37
2018-07-14T20:24:16.990Z,2.60
2018-07-14T20:34:21.675Z,2.43
2018-07-14T20:44:26.480Z,2.20
2018-07-14T20:54:31.163Z,2.30
2018-07-14T21:04:35.815Z,2.50
2018-07-14T21:14:40.533Z,2.40
2018-07-14T21:24:45.179Z,2.20
2018-07-14T21:34:51.006Z,2.30
2018-07-14T21:44:55.670Z,2.00
2018-07-14T21:55:00.311Z,2.23
2018-07-14T22:05:05.130Z,2.23
2018-07-14T22:15:09.743Z,2.10
2018-07-14T22:25:14.392Z,2.10
2018-07-14T22:35:19.166Z,2.10
2018-07-14T22:45:23.956Z,2.20
2018-07-14T22:55:28.644Z,2.17
2018-07-14T23:05:33.532Z,2.13
2018-07-14T23:15:38.498Z,2.07
2018-07-14T23:25:43.521Z,2.20
2018-07-14T23:35:48.258Z,2.07
2018-07-14T23:45:53.037Z,2.10
2018-07-14T23:55:58.336Z,2.20
